sensor_id;sensor_type;location;lat;lon;timestamp;temperature;humidity
12229;DHT22;6177;52.402;9.800;2022-09-13T00:01:26;17.20;67.80
12229;DHT22;6177;52.402;9.800;2022-09-13T00:04:10;17.20;67.90
12229;DHT22;6177;52.402;9.800;2022-09-13T00:06:55;17.10;67.90
12229;DHT22;6177;52.402;9.800;2022-09-13T00:09:39;17.10;68.00
12229;DHT22;6177;52.402;9.800;2022-09-13T00:12:23;17.10;68.10
12229;DHT22;6177;52.402;9.800;2022-09-13T00:15:08;17.10;68.10
12229;DHT22;6177;52.402;9.800;2022-09-13T00:17:54;17.10;68.20
12229;DHT22;6177;52.402;9.800;2022-09-13T00:20:39;17.10;68.20
12229;DHT22;6177;52.402;9.800;2022-09-13T00:23:24;17.10;68.30
12229;DHT22;6177;52.402;9.800;2022-09-13T00:26:12;17.10;68.30
12229;DHT22;6177;52.402;9.800;2022-09-13T00:28:57;17.10;68.40
12229;DHT22;6177;52.402;9.800;2022-09-13T00:31:42;17.10;68.40
12229;DHT22;6177;52.402;9.800;2022-09-13T00:34:26;17.10;68.40
12229;DHT22;6177;52.402;9.800;2022-09-13T00:37:10;17.10;68.40
12229;DHT22;6177;52.402;9.800;2022-09-13T00:39:54;17.10;68.50
12229;DHT22;6177;52.402;9.800;2022-09-13T00:42:39;17.10;68.50
12229;DHT22;6177;52.402;9.800;2022-09-13T00:45:23;17.00;68.60
12229;DHT22;6177;52.402;9.800;2022-09-13T00:48:10;17.00;68.60
12229;DHT22;6177;52.402;9.800;2022-09-13T00:50:57;17.00;68.60
12229;DHT22;6177;52.402;9.800;2022-09-13T00:53:43;17.00;68.80
12229;DHT22;6177;52.402;9.800;2022-09-13T00:56:34;17.00;68.90
12229;DHT22;6177;52.402;9.800;2022-09-13T00:59:24;16.90;68.90
12229;DHT22;6177;52.402;9.800;2022-09-13T01:02:10;16.90;69.00
12229;DHT22;6177;52.402;9.800;2022-09-13T01:04:54;16.90;69.10
12229;DHT22;6177;52.402;9.800;2022-09-13T01:07:39;16.90;69.20
12229;DHT22;6177;52.402;9.800;2022-09-13T01:10:24;16.90;69.30
12229;DHT22;6177;52.402;9.800;2022-09-13T01:13:15;16.80;69.30
12229;DHT22;6177;52.402;9.800;2022-09-13T01:16:01;16.80;69.30
12229;DHT22;6177;52.402;9.800;2022-09-13T01:18:53;16.90;69.40
12229;DHT22;6177;52.402;9.800;2022-09-13T01:30:27;17.00;69.00
12229;DHT22;6177;52.402;9.800;2022-09-13T01:39:29;17.20;68.60
12229;DHT22;6177;52.402;9.800;2022-09-13T01:45:21;17.20;68.50
12229;DHT22;6177;52.402;9.800;2022-09-13T01:48:18;17.20;68.40
12229;DHT22;6177;52.402;9.800;2022-09-13T01:51:08;17.20;68.40
12229;DHT22;6177;52.402;9.800;2022-09-13T01:54:07;17.30;68.40
12229;DHT22;6177;52.402;9.800;2022-09-13T02:03:06;17.30;68.30
12229;DHT22;6177;52.402;9.800;2022-09-13T02:05:54;17.30;68.40
12229;DHT22;6177;52.402;9.800;2022-09-13T02:08:42;17.30;68.30
12229;DHT22;6177;52.402;9.800;2022-09-13T02:11:27;17.30;68.40
12229;DHT22;6177;52.402;9.800;2022-09-13T02:14:15;17.40;68.40
12229;DHT22;6177;52.402;9.800;2022-09-13T02:19:50;17.50;68.20
12229;DHT22;6177;52.402;9.800;2022-09-13T02:22:38;17.50;68.30
12229;DHT22;6177;52.402;9.800;2022-09-13T02:25:24;17.50;68.30
12229;DHT22;6177;52.402;9.800;2022-09-13T02:28:11;17.50;68.20
12229;DHT22;6177;52.402;9.800;2022-09-13T02:30:59;17.60;68.20
12229;DHT22;6177;52.402;9.800;2022-09-13T02:33:47;17.60;68.30
12229;DHT22;6177;52.402;9.800;2022-09-13T02:36:35;17.60;68.30
12229;DHT22;6177;52.402;9.800;2022-09-13T02:39:23;17.60;68.40
12229;DHT22;6177;52.402;9.800;2022-09-13T02:44:55;17.70;68.60
12229;DHT22;6177;52.402;9.800;2022-09-13T02:53:37;17.60;70.50
12229;DHT22;6177;52.402;9.800;2022-09-13T02:56:29;17.60;71.80
12229;DHT22;6177;52.402;9.800;2022-09-13T02:59:18;17.50;72.90
12229;DHT22;6177;52.402;9.800;2022-09-13T03:02:11;17.40;74.40
12229;DHT22;6177;52.402;9.800;2022-09-13T03:04:57;17.30;75.30
12229;DHT22;6177;52.402;9.800;2022-09-13T03:07:42;17.30;76.00
12229;DHT22;6177;52.402;9.800;2022-09-13T03:10:28;17.20;76.20
12229;DHT22;6177;52.402;9.800;2022-09-13T03:16:14;17.20;76.80
12229;DHT22;6177;52.402;9.800;2022-09-13T03:31:07;16.90;79.20
12229;DHT22;6177;52.402;9.800;2022-09-13T03:33:56;16.90;79.60
12229;DHT22;6177;52.402;9.800;2022-09-13T03:36:46;16.90;80.30
12229;DHT22;6177;52.402;9.800;2022-09-13T03:39:39;16.90;80.80
12229;DHT22;6177;52.402;9.800;2022-09-13T03:42:30;16.90;81.10
12229;DHT22;6177;52.402;9.800;2022-09-13T03:45:16;16.90;81.30
12229;DHT22;6177;52.402;9.800;2022-09-13T03:48:02;16.80;81.50
12229;DHT22;6177;52.402;9.800;2022-09-13T03:50:48;16.80;81.80
12229;DHT22;6177;52.402;9.800;2022-09-13T03:53:33;16.90;82.10
12229;DHT22;6177;52.402;9.800;2022-09-13T03:56:19;16.90;82.30
12229;DHT22;6177;52.402;9.800;2022-09-13T03:59:03;16.90;82.50
12229;DHT22;6177;52.402;9.800;2022-09-13T04:01:48;16.90;82.60
12229;DHT22;6177;52.402;9.800;2022-09-13T04:04:32;16.90;82.80
12229;DHT22;6177;52.402;9.800;2022-09-13T04:07:20;16.90;82.90
12229;DHT22;6177;52.402;9.800;2022-09-13T04:10:05;16.90;83.00
12229;DHT22;6177;52.402;9.800;2022-09-13T04:12:50;16.90;83.10
12229;DHT22;6177;52.402;9.800;2022-09-13T04:15:35;16.90;83.30
12229;DHT22;6177;52.402;9.800;2022-09-13T04:18:19;16.90;83.40
12229;DHT22;6177;52.402;9.800;2022-09-13T04:21:04;16.90;83.50
12229;DHT22;6177;52.402;9.800;2022-09-13T04:23:48;16.90;83.70
12229;DHT22;6177;52.402;9.800;2022-09-13T04:26:33;16.90;83.80
12229;DHT22;6177;52.402;9.800;2022-09-13T04:29:19;16.90;84.00
12229;DHT22;6177;52.402;9.800;2022-09-13T04:32:03;16.90;84.10
12229;DHT22;6177;52.402;9.800;2022-09-13T04:34:48;16.90;84.10
12229;DHT22;6177;52.402;9.800;2022-09-13T04:37:32;16.90;84.30
12229;DHT22;6177;52.402;9.800;2022-09-13T04:40:16;16.90;84.40
12229;DHT22;6177;52.402;9.800;2022-09-13T04:43:00;16.90;84.30
12229;DHT22;6177;52.402;9.800;2022-09-13T04:45:44;16.90;84.30
12229;DHT22;6177;52.402;9.800;2022-09-13T04:48:29;16.90;84.40
12229;DHT22;6177;52.402;9.800;2022-09-13T04:51:13;16.90;84.40
12229;DHT22;6177;52.402;9.800;2022-09-13T04:53:58;16.90;84.40
12229;DHT22;6177;52.402;9.800;2022-09-13T04:56:43;16.90;84.30
12229;DHT22;6177;52.402;9.800;2022-09-13T04:59:28;16.90;84.30
12229;DHT22;6177;52.402;9.800;2022-09-13T05:02:12;17.00;84.10
12229;DHT22;6177;52.402;9.800;2022-09-13T05:04:57;16.90;84.30
12229;DHT22;6177;52.402;9.800;2022-09-13T05:07:41;16.90;84.40
12229;DHT22;6177;52.402;9.800;2022-09-13T05:10:26;16.90;84.50
12229;DHT22;6177;52.402;9.800;2022-09-13T05:13:10;17.00;84.60
12229;DHT22;6177;52.402;9.800;2022-09-13T05:15:55;17.00;84.80
12229;DHT22;6177;52.402;9.800;2022-09-13T05:18:40;17.00;84.90
12229;DHT22;6177;52.402;9.800;2022-09-13T05:21:24;17.00;84.70
12229;DHT22;6177;52.402;9.800;2022-09-13T05:24:11;17.10;84.50
12229;DHT22;6177;52.402;9.800;2022-09-13T05:26:56;17.10;84.60
12229;DHT22;6177;52.402;9.800;2022-09-13T05:29:40;17.10;84.70
12229;DHT22;6177;52.402;9.800;2022-09-13T05:32:25;17.10;84.70
12229;DHT22;6177;52.402;9.800;2022-09-13T05:35:09;17.20;84.50
12229;DHT22;6177;52.402;9.800;2022-09-13T05:37:54;17.20;84.10
12229;DHT22;6177;52.402;9.800;2022-09-13T05:40:38;17.20;83.80
12229;DHT22;6177;52.402;9.800;2022-09-13T05:43:23;17.20;83.70
12229;DHT22;6177;52.402;9.800;2022-09-13T05:46:11;17.20;83.50
12229;DHT22;6177;52.402;9.800;2022-09-13T05:48:56;17.30;83.30
12229;DHT22;6177;52.402;9.800;2022-09-13T05:51:41;17.30;83.30
12229;DHT22;6177;52.402;9.800;2022-09-13T05:54:26;17.30;83.20
12229;DHT22;6177;52.402;9.800;2022-09-13T05:57:11;17.30;83.30
12229;DHT22;6177;52.402;9.800;2022-09-13T05:59:55;17.30;83.20
12229;DHT22;6177;52.402;9.800;2022-09-13T06:02:40;17.30;83.10
12229;DHT22;6177;52.402;9.800;2022-09-13T06:05:25;17.30;82.70
12229;DHT22;6177;52.402;9.800;2022-09-13T06:08:10;17.30;82.60
12229;DHT22;6177;52.402;9.800;2022-09-13T06:10:55;17.40;82.40
12229;DHT22;6177;52.402;9.800;2022-09-13T06:13:40;17.40;82.30
12229;DHT22;6177;52.402;9.800;2022-09-13T06:16:28;17.40;82.10
12229;DHT22;6177;52.402;9.800;2022-09-13T06:19:12;17.50;82.10
12229;DHT22;6177;52.402;9.800;2022-09-13T06:21:57;17.50;82.00
12229;DHT22;6177;52.402;9.800;2022-09-13T06:24:41;17.60;81.80
12229;DHT22;6177;52.402;9.800;2022-09-13T06:27:25;17.50;81.80
12229;DHT22;6177;52.402;9.800;2022-09-13T06:30:10;17.60;81.70
12229;DHT22;6177;52.402;9.800;2022-09-13T06:32:56;17.60;81.50
12229;DHT22;6177;52.402;9.800;2022-09-13T06:35:40;17.70;81.20
12229;DHT22;6177;52.402;9.800;2022-09-13T06:38:25;17.70;81.10
12229;DHT22;6177;52.402;9.800;2022-09-13T06:41:10;17.80;81.20
12229;DHT22;6177;52.402;9.800;2022-09-13T06:43:55;17.90;81.00
12229;DHT22;6177;52.402;9.800;2022-09-13T06:46:42;18.00;80.90
12229;DHT22;6177;52.402;9.800;2022-09-13T06:49:26;18.10;80.60
12229;DHT22;6177;52.402;9.800;2022-09-13T06:52:12;18.20;80.30
12229;DHT22;6177;52.402;9.800;2022-09-13T06:54:57;18.20;80.10
12229;DHT22;6177;52.402;9.800;2022-09-13T06:57:42;18.10;80.20
12229;DHT22;6177;52.402;9.800;2022-09-13T07:00:26;18.10;80.50
12229;DHT22;6177;52.402;9.800;2022-09-13T07:03:10;18.10;80.80
12229;DHT22;6177;52.402;9.800;2022-09-13T07:05:54;18.20;80.70
12229;DHT22;6177;52.402;9.800;2022-09-13T07:08:40;18.20;80.70
12229;DHT22;6177;52.402;9.800;2022-09-13T07:11:25;18.20;80.80
12229;DHT22;6177;52.402;9.800;2022-09-13T07:14:12;18.20;80.80
12229;DHT22;6177;52.402;9.800;2022-09-13T07:16:57;18.20;80.50
12229;DHT22;6177;52.402;9.800;2022-09-13T07:19:41;18.20;80.60
12229;DHT22;6177;52.402;9.800;2022-09-13T07:22:26;18.30;80.40
12229;DHT22;6177;52.402;9.800;2022-09-13T07:25:10;18.30;80.30
12229;DHT22;6177;52.402;9.800;2022-09-13T07:27:55;18.40;80.30
12229;DHT22;6177;52.402;9.800;2022-09-13T07:30:39;18.40;80.10
12229;DHT22;6177;52.402;9.800;2022-09-13T07:33:24;18.40;79.90
12229;DHT22;6177;52.402;9.800;2022-09-13T07:36:10;18.50;79.50
12229;DHT22;6177;52.402;9.800;2022-09-13T07:38:55;18.50;79.70
12229;DHT22;6177;52.402;9.800;2022-09-13T07:41:40;18.50;79.10
12229;DHT22;6177;52.402;9.800;2022-09-13T07:44:25;18.50;79.00
12229;DHT22;6177;52.402;9.800;2022-09-13T07:47:09;18.50;79.10
12229;DHT22;6177;52.402;9.800;2022-09-13T07:49:53;18.60;79.00
12229;DHT22;6177;52.402;9.800;2022-09-13T07:52:37;18.70;78.80
12229;DHT22;6177;52.402;9.800;2022-09-13T07:55:23;18.80;78.80
12229;DHT22;6177;52.402;9.800;2022-09-13T07:58:08;19.00;78.30
12229;DHT22;6177;52.402;9.800;2022-09-13T08:00:53;19.10;78.10
12229;DHT22;6177;52.402;9.800;2022-09-13T08:03:37;19.20;77.90
12229;DHT22;6177;52.402;9.800;2022-09-13T08:06:22;19.40;77.90
12229;DHT22;6177;52.402;9.800;2022-09-13T08:09:07;19.70;77.50
12229;DHT22;6177;52.402;9.800;2022-09-13T08:11:52;20.00;76.80
12229;DHT22;6177;52.402;9.800;2022-09-13T08:14:36;20.10;76.10
12229;DHT22;6177;52.402;9.800;2022-09-13T08:17:21;20.20;75.30
12229;DHT22;6177;52.402;9.800;2022-09-13T08:20:05;20.20;74.00
12229;DHT22;6177;52.402;9.800;2022-09-13T08:22:50;20.20;73.90
12229;DHT22;6177;52.402;9.800;2022-09-13T08:25:34;20.10;74.20
12229;DHT22;6177;52.402;9.800;2022-09-13T08:28:20;20.20;74.00
12229;DHT22;6177;52.402;9.800;2022-09-13T08:31:12;20.20;73.80
12229;DHT22;6177;52.402;9.800;2022-09-13T08:33:58;20.30;73.30
12229;DHT22;6177;52.402;9.800;2022-09-13T08:36:43;20.20;73.30
12229;DHT22;6177;52.402;9.800;2022-09-13T08:39:27;20.30;72.80
12229;DHT22;6177;52.402;9.800;2022-09-13T08:44:57;20.30;72.90
12229;DHT22;6177;52.402;9.800;2022-09-13T08:47:43;20.40;72.90
12229;DHT22;6177;52.402;9.800;2022-09-13T08:50:30;20.40;72.90
12229;DHT22;6177;52.402;9.800;2022-09-13T08:53:21;20.50;72.50
12229;DHT22;6177;52.402;9.800;2022-09-13T08:56:11;20.60;72.10
12229;DHT22;6177;52.402;9.800;2022-09-13T09:07:41;20.90;71.20
12229;DHT22;6177;52.402;9.800;2022-09-13T09:10:35;20.90;71.20
12229;DHT22;6177;52.402;9.800;2022-09-13T09:13:31;20.90;71.10
12229;DHT22;6177;52.402;9.800;2022-09-13T09:16:26;20.90;70.90
12229;DHT22;6177;52.402;9.800;2022-09-13T09:19:27;21.00;70.50
12229;DHT22;6177;52.402;9.800;2022-09-13T09:22:18;21.10;70.40
12229;DHT22;6177;52.402;9.800;2022-09-13T09:25:07;21.20;70.50
12229;DHT22;6177;52.402;9.800;2022-09-13T09:27:52;21.40;70.10
12229;DHT22;6177;52.402;9.800;2022-09-13T09:39:26;21.70;69.60
12229;DHT22;6177;52.402;9.800;2022-09-13T09:42:31;21.90;69.30
12229;DHT22;6177;52.402;9.800;2022-09-13T09:45:29;21.90;69.10
12229;DHT22;6177;52.402;9.800;2022-09-13T09:48:15;21.90;69.60
12229;DHT22;6177;52.402;9.800;2022-09-13T09:51:01;21.80;69.90
12229;DHT22;6177;52.402;9.800;2022-09-13T09:53:49;21.70;70.20
12229;DHT22;6177;52.402;9.800;2022-09-13T09:56:35;21.70;70.20
12229;DHT22;6177;52.402;9.800;2022-09-13T09:59:25;21.60;70.40
12229;DHT22;6177;52.402;9.800;2022-09-13T10:02:16;21.60;70.50
12229;DHT22;6177;52.402;9.800;2022-09-13T10:05:00;21.80;70.60
12229;DHT22;6177;52.402;9.800;2022-09-13T10:07:56;22.00;70.20
12229;DHT22;6177;52.402;9.800;2022-09-13T10:10:42;22.40;69.90
12229;DHT22;6177;52.402;9.800;2022-09-13T10:13:27;22.60;69.20
12229;DHT22;6177;52.402;9.800;2022-09-13T10:16:25;22.90;68.40
12229;DHT22;6177;52.402;9.800;2022-09-13T10:19:23;23.10;68.10
12229;DHT22;6177;52.402;9.800;2022-09-13T10:22:11;23.40;67.50
12229;DHT22;6177;52.402;9.800;2022-09-13T10:27:56;23.10;67.90
12229;DHT22;6177;52.402;9.800;2022-09-13T10:30:42;22.90;68.20
12229;DHT22;6177;52.402;9.800;2022-09-13T10:33:33;22.90;68.70
12229;DHT22;6177;52.402;9.800;2022-09-13T10:36:19;22.90;69.00
12229;DHT22;6177;52.402;9.800;2022-09-13T10:39:05;22.80;69.30
12229;DHT22;6177;52.402;9.800;2022-09-13T10:42:01;22.70;69.50
12229;DHT22;6177;52.402;9.800;2022-09-13T10:44:51;22.60;69.80
12229;DHT22;6177;52.402;9.800;2022-09-13T10:47:38;22.70;70.10
12229;DHT22;6177;52.402;9.800;2022-09-13T10:50:28;22.70;69.90
12229;DHT22;6177;52.402;9.800;2022-09-13T10:53:29;22.80;70.00
12229;DHT22;6177;52.402;9.800;2022-09-13T10:56:32;22.60;70.10
12229;DHT22;6177;52.402;9.800;2022-09-13T10:59:21;22.50;70.00
12229;DHT22;6177;52.402;9.800;2022-09-13T11:02:31;22.40;70.60
12229;DHT22;6177;52.402;9.800;2022-09-13T11:05:19;22.20;71.00
12229;DHT22;6177;52.402;9.800;2022-09-13T11:16:52;21.60;73.00
12229;DHT22;6177;52.402;9.800;2022-09-13T11:28:24;21.60;73.60
12229;DHT22;6177;52.402;9.800;2022-09-13T11:37:20;21.50;74.20
12229;DHT22;6177;52.402;9.800;2022-09-13T11:49:17;21.30;74.60
12229;DHT22;6177;52.402;9.800;2022-09-13T11:52:07;21.30;74.80
12229;DHT22;6177;52.402;9.800;2022-09-13T11:57:57;21.40;74.70
12229;DHT22;6177;52.402;9.800;2022-09-13T12:00:45;21.30;74.80
12229;DHT22;6177;52.402;9.800;2022-09-13T12:07:06;21.20;75.60
12229;DHT22;6177;52.402;9.800;2022-09-13T12:10:03;21.10;76.30
12229;DHT22;6177;52.402;9.800;2022-09-13T12:12:49;21.10;76.70
12229;DHT22;6177;52.402;9.800;2022-09-13T12:15:36;21.20;77.30
12229;DHT22;6177;52.402;9.800;2022-09-13T12:18:31;21.20;77.80
12229;DHT22;6177;52.402;9.800;2022-09-13T12:21:22;21.30;78.20
12229;DHT22;6177;52.402;9.800;2022-09-13T12:24:55;21.50;78.10
12229;DHT22;6177;52.402;9.800;2022-09-13T12:27:27;21.60;77.70
12229;DHT22;6177;52.402;9.800;2022-09-13T12:32:59;21.70;77.20
12229;DHT22;6177;52.402;9.800;2022-09-13T12:35:53;21.60;77.30
12229;DHT22;6177;52.402;9.800;2022-09-13T12:38:48;21.50;77.70
12229;DHT22;6177;52.402;9.800;2022-09-13T12:47:24;21.00;79.90
12229;DHT22;6177;52.402;9.800;2022-09-13T12:59:09;21.40;77.70
12229;DHT22;6177;52.402;9.800;2022-09-13T13:02:02;21.30;78.20
12229;DHT22;6177;52.402;9.800;2022-09-13T13:04:49;21.30;78.50
12229;DHT22;6177;52.402;9.800;2022-09-13T13:07:37;21.40;78.30
12229;DHT22;6177;52.402;9.800;2022-09-13T13:10:25;21.50;78.30
12229;DHT22;6177;52.402;9.800;2022-09-13T13:13:21;22.10;78.10
12229;DHT22;6177;52.402;9.800;2022-09-13T13:19:27;23.90;72.50
12229;DHT22;6177;52.402;9.800;2022-09-13T13:25:30;25.50;66.90
12229;DHT22;6177;52.402;9.800;2022-09-13T13:37:40;25.80;65.00
12229;DHT22;6177;52.402;9.800;2022-09-13T13:40:22;25.50;65.20
12229;DHT22;6177;52.402;9.800;2022-09-13T13:43:13;24.90;66.00
12229;DHT22;6177;52.402;9.800;2022-09-13T13:48:55;24.10;67.20
12229;DHT22;6177;52.402;9.800;2022-09-13T13:51:39;23.90;67.60
12229;DHT22;6177;52.402;9.800;2022-09-13T13:54:27;24.30;67.20
12229;DHT22;6177;52.402;9.800;2022-09-13T13:57:26;24.70;66.40
12229;DHT22;6177;52.402;9.800;2022-09-13T14:00:21;25.40;65.60
12229;DHT22;6177;52.402;9.800;2022-09-13T14:09:05;26.10;61.80
12229;DHT22;6177;52.402;9.800;2022-09-13T14:17:29;27.20;55.20
12229;DHT22;6177;52.402;9.800;2022-09-13T14:20:18;27.20;51.40
12229;DHT22;6177;52.402;9.800;2022-09-13T14:23:37;27.40;50.30
12229;DHT22;6177;52.402;9.800;2022-09-13T14:26:15;27.30;50.10
12229;DHT22;6177;52.402;9.800;2022-09-13T14:28:59;27.20;51.00
12229;DHT22;6177;52.402;9.800;2022-09-13T14:31:51;27.30;50.40
12229;DHT22;6177;52.402;9.800;2022-09-13T14:34:37;27.30;48.80
12229;DHT22;6177;52.402;9.800;2022-09-13T14:37:29;27.40;48.40
12229;DHT22;6177;52.402;9.800;2022-09-13T14:43:19;27.30;48.00
12229;DHT22;6177;52.402;9.800;2022-09-13T14:46:07;27.20;48.20
12229;DHT22;6177;52.402;9.800;2022-09-13T14:48:53;27.20;47.80
12229;DHT22;6177;52.402;9.800;2022-09-13T14:51:46;27.60;47.70
12229;DHT22;6177;52.402;9.800;2022-09-13T14:57:27;28.10;44.30
12229;DHT22;6177;52.402;9.800;2022-09-13T15:02:57;28.30;44.90
12229;DHT22;6177;52.402;9.800;2022-09-13T15:05:49;28.50;44.70
12229;DHT22;6177;52.402;9.800;2022-09-13T15:08:42;28.20;43.80
12229;DHT22;6177;52.402;9.800;2022-09-13T15:11:29;27.90;44.60
12229;DHT22;6177;52.402;9.800;2022-09-13T15:14:20;27.70;45.30
12229;DHT22;6177;52.402;9.800;2022-09-13T15:17:06;27.40;45.90
12229;DHT22;6177;52.402;9.800;2022-09-13T15:20:00;27.00;46.60
12229;DHT22;6177;52.402;9.800;2022-09-13T15:22:46;27.10;47.40
12229;DHT22;6177;52.402;9.800;2022-09-13T15:25:30;27.40;46.00
12229;DHT22;6177;52.402;9.800;2022-09-13T15:28:19;27.40;45.00
12229;DHT22;6177;52.402;9.800;2022-09-13T15:31:03;26.90;45.40
12229;DHT22;6177;52.402;9.800;2022-09-13T15:33:48;26.60;46.20
12229;DHT22;6177;52.402;9.800;2022-09-13T15:36:32;26.10;47.30
12229;DHT22;6177;52.402;9.800;2022-09-13T15:39:18;26.00;47.70
12229;DHT22;6177;52.402;9.800;2022-09-13T15:42:03;25.90;48.20
12229;DHT22;6177;52.402;9.800;2022-09-13T15:44:47;25.80;48.10
12229;DHT22;6177;52.402;9.800;2022-09-13T15:47:31;25.70;48.30
12229;DHT22;6177;52.402;9.800;2022-09-13T15:50:19;25.60;48.10
12229;DHT22;6177;52.402;9.800;2022-09-13T15:53:05;25.40;48.30
12229;DHT22;6177;52.402;9.800;2022-09-13T15:55:53;25.10;48.50
12229;DHT22;6177;52.402;9.800;2022-09-13T15:58:38;24.90;48.80
12229;DHT22;6177;52.402;9.800;2022-09-13T16:01:23;24.80;48.80
12229;DHT22;6177;52.402;9.800;2022-09-13T16:04:07;24.50;49.20
12229;DHT22;6177;52.402;9.800;2022-09-13T16:06:51;24.40;50.50
12229;DHT22;6177;52.402;9.800;2022-09-13T16:09:36;24.40;49.80
12229;DHT22;6177;52.402;9.800;2022-09-13T16:12:22;24.10;49.50
12229;DHT22;6177;52.402;9.800;2022-09-13T16:15:08;24.00;49.50
12229;DHT22;6177;52.402;9.800;2022-09-13T16:17:52;23.80;50.10
12229;DHT22;6177;52.402;9.800;2022-09-13T16:20:37;23.80;50.10
12229;DHT22;6177;52.402;9.800;2022-09-13T16:23:21;23.80;49.00
12229;DHT22;6177;52.402;9.800;2022-09-13T16:26:06;23.70;49.00
12229;DHT22;6177;52.402;9.800;2022-09-13T16:28:50;23.60;49.50
12229;DHT22;6177;52.402;9.800;2022-09-13T16:31:34;23.60;49.30
12229;DHT22;6177;52.402;9.800;2022-09-13T16:34:19;23.50;50.10
12229;DHT22;6177;52.402;9.800;2022-09-13T16:37:04;23.40;49.80
12229;DHT22;6177;52.402;9.800;2022-09-13T16:39:49;23.30;50.30
12229;DHT22;6177;52.402;9.800;2022-09-13T16:50:17;22.70;52.70
12229;DHT22;6177;52.402;9.800;2022-09-13T17:00:15;22.20;54.00
12229;DHT22;6177;52.402;9.800;2022-09-13T17:03:02;22.00;54.50
12229;DHT22;6177;52.402;9.800;2022-09-13T17:05:57;21.80;55.30
12229;DHT22;6177;52.402;9.800;2022-09-13T17:08:44;21.70;55.60
12229;DHT22;6177;52.402;9.800;2022-09-13T17:11:31;21.50;56.20
12229;DHT22;6177;52.402;9.800;2022-09-13T17:14:15;21.40;56.60
12229;DHT22;6177;52.402;9.800;2022-09-13T17:17:01;21.20;57.10
12229;DHT22;6177;52.402;9.800;2022-09-13T17:19:46;21.10;57.20
12229;DHT22;6177;52.402;9.800;2022-09-13T17:22:30;21.00;57.90
12229;DHT22;6177;52.402;9.800;2022-09-13T17:25:15;20.80;59.00
12229;DHT22;6177;52.402;9.800;2022-09-13T17:28:00;20.70;60.00
12229;DHT22;6177;52.402;9.800;2022-09-13T17:30:45;20.60;60.10
12229;DHT22;6177;52.402;9.800;2022-09-13T17:33:29;20.50;60.30
12229;DHT22;6177;52.402;9.800;2022-09-13T17:36:14;20.40;60.60
12229;DHT22;6177;52.402;9.800;2022-09-13T17:38:59;20.30;60.90
12229;DHT22;6177;52.402;9.800;2022-09-13T17:41:44;20.20;61.20
12229;DHT22;6177;52.402;9.800;2022-09-13T17:44:28;20.10;61.90
12229;DHT22;6177;52.402;9.800;2022-09-13T17:47:13;19.90;62.30
12229;DHT22;6177;52.402;9.800;2022-09-13T17:49:57;19.90;62.60
12229;DHT22;6177;52.402;9.800;2022-09-13T17:52:42;19.70;62.60
12229;DHT22;6177;52.402;9.800;2022-09-13T17:58:41;19.60;63.30
12229;DHT22;6177;52.402;9.800;2022-09-13T18:01:25;19.50;63.50
12229;DHT22;6177;52.402;9.800;2022-09-13T18:04:10;19.40;64.20
12229;DHT22;6177;52.402;9.800;2022-09-13T18:06:55;19.30;64.70
12229;DHT22;6177;52.402;9.800;2022-09-13T18:09:40;19.30;65.00
12229;DHT22;6177;52.402;9.800;2022-09-13T18:12:25;19.20;65.10
12229;DHT22;6177;52.402;9.800;2022-09-13T18:15:09;19.10;65.30
12229;DHT22;6177;52.402;9.800;2022-09-13T18:17:54;19.10;65.40
12229;DHT22;6177;52.402;9.800;2022-09-13T18:20:43;19.00;65.80
12229;DHT22;6177;52.402;9.800;2022-09-13T18:23:28;18.90;66.10
12229;DHT22;6177;52.402;9.800;2022-09-13T18:26:13;18.90;66.20
12229;DHT22;6177;52.402;9.800;2022-09-13T18:28:59;18.80;66.40
12229;DHT22;6177;52.402;9.800;2022-09-13T18:31:44;18.70;66.70
12229;DHT22;6177;52.402;9.800;2022-09-13T18:34:29;18.70;66.80
12229;DHT22;6177;52.402;9.800;2022-09-13T18:37:14;18.60;67.00
12229;DHT22;6177;52.402;9.800;2022-09-13T18:39:59;18.60;67.20
12229;DHT22;6177;52.402;9.800;2022-09-13T18:46:43;18.40;68.10
12229;DHT22;6177;52.402;9.800;2022-09-13T18:49:29;18.40;68.20
12229;DHT22;6177;52.402;9.800;2022-09-13T18:52:13;18.30;68.40
12229;DHT22;6177;52.402;9.800;2022-09-13T18:54:58;18.20;68.60
12229;DHT22;6177;52.402;9.800;2022-09-13T18:57:42;18.20;69.00
12229;DHT22;6177;52.402;9.800;2022-09-13T19:00:26;18.10;69.60
12229;DHT22;6177;52.402;9.800;2022-09-13T19:03:11;18.10;69.20
12229;DHT22;6177;52.402;9.800;2022-09-13T19:06:10;18.20;68.20
12229;DHT22;6177;52.402;9.800;2022-09-13T19:08:55;18.10;68.00
12229;DHT22;6177;52.402;9.800;2022-09-13T19:11:41;18.10;68.00
12229;DHT22;6177;52.402;9.800;2022-09-13T19:14:29;18.00;68.10
12229;DHT22;6177;52.402;9.800;2022-09-13T19:17:15;17.90;68.20
12229;DHT22;6177;52.402;9.800;2022-09-13T19:19:59;17.90;68.20
12229;DHT22;6177;52.402;9.800;2022-09-13T19:22:44;17.90;68.30
12229;DHT22;6177;52.402;9.800;2022-09-13T19:25:28;17.80;68.60
12229;DHT22;6177;52.402;9.800;2022-09-13T19:28:13;17.70;68.80
12229;DHT22;6177;52.402;9.800;2022-09-13T19:31:02;17.70;69.00
12229;DHT22;6177;52.402;9.800;2022-09-13T19:33:48;17.70;69.00
12229;DHT22;6177;52.402;9.800;2022-09-13T19:36:33;17.70;69.10
12229;DHT22;6177;52.402;9.800;2022-09-13T19:39:17;17.70;69.10
12229;DHT22;6177;52.402;9.800;2022-09-13T19:42:02;17.60;69.20
12229;DHT22;6177;52.402;9.800;2022-09-13T19:44:47;17.50;69.40
12229;DHT22;6177;52.402;9.800;2022-09-13T19:47:31;17.50;69.60
12229;DHT22;6177;52.402;9.800;2022-09-13T19:50:16;17.50;69.90
12229;DHT22;6177;52.402;9.800;2022-09-13T19:53:01;17.40;70.10
12229;DHT22;6177;52.402;9.800;2022-09-13T19:55:46;17.30;70.30
12229;DHT22;6177;52.402;9.800;2022-09-13T19:58:31;17.30;70.60
12229;DHT22;6177;52.402;9.800;2022-09-13T20:01:17;17.20;70.80
12229;DHT22;6177;52.402;9.800;2022-09-13T20:04:06;17.20;71.10
12229;DHT22;6177;52.402;9.800;2022-09-13T20:06:50;17.10;71.30
12229;DHT22;6177;52.402;9.800;2022-09-13T20:09:36;17.10;71.60
12229;DHT22;6177;52.402;9.800;2022-09-13T20:12:21;17.00;71.80
12229;DHT22;6177;52.402;9.800;2022-09-13T20:15:06;17.00;72.20
12229;DHT22;6177;52.402;9.800;2022-09-13T20:17:51;16.90;72.50
12229;DHT22;6177;52.402;9.800;2022-09-13T20:20:35;16.90;72.90
12229;DHT22;6177;52.402;9.800;2022-09-13T20:23:20;16.80;73.30
12229;DHT22;6177;52.402;9.800;2022-09-13T20:29:01;16.70;73.90
12229;DHT22;6177;52.402;9.800;2022-09-13T20:31:46;16.70;74.20
12229;DHT22;6177;52.402;9.800;2022-09-13T20:34:31;16.60;74.40
12229;DHT22;6177;52.402;9.800;2022-09-13T20:37:18;16.60;74.60
12229;DHT22;6177;52.402;9.800;2022-09-13T20:40:03;16.50;74.70
12229;DHT22;6177;52.402;9.800;2022-09-13T20:42:48;16.50;74.90
12229;DHT22;6177;52.402;9.800;2022-09-13T20:45:33;16.50;75.10
12229;DHT22;6177;52.402;9.800;2022-09-13T20:48:18;16.40;75.20
12229;DHT22;6177;52.402;9.800;2022-09-13T20:51:03;16.40;75.40
12229;DHT22;6177;52.402;9.800;2022-09-13T20:53:52;16.30;75.60
12229;DHT22;6177;52.402;9.800;2022-09-13T20:56:39;16.30;75.80
12229;DHT22;6177;52.402;9.800;2022-09-13T20:59:23;16.20;76.00
12229;DHT22;6177;52.402;9.800;2022-09-13T21:02:08;16.10;76.30
12229;DHT22;6177;52.402;9.800;2022-09-13T21:04:52;16.00;76.60